DFOO/BOY METAR and TAF weather

Enter ICAO airport designator
Station Type Date Time Source
DFOO METAR 2019/05/25 08:00 UTC NOAA

DFOO 250800Z 20007KT 170V230 9999 FEW020 FEW040CB 24/22 Q1015


Station Type Date Time Source
DFOO Decoded METAR 2019/05/25 08:00 UTC NOAA

Bobo-Dioulasso, Burkina Faso (DFOO) 11-10N 004-19W 460M
May 25, 2019 - 04:00 AM EDT / 2019.05.25 0800 UTC
Wind: from the SSW (200 degrees) at 8 MPH (7 KT) (direction variable):0
Visibility: greater than 7 mile(s):0
Sky conditions: mostly clear
Weather: Cumulonimbus clouds observed
Temperature: 75 F (24 C)
Dew Point: 71 F (22 C)
Relative Humidity: 88%
Pressure (altimeter): 29.97 in. Hg (1015 hPa)
ob: DFOO 250800Z 20007KT 170V230 9999 FEW020 FEW040CB 24/22 Q1015
cycle: 8

Station Type Date Time Source
DFOO TAF 2019/05/25 06:21 UTC NOAA

TAF DFOO 250500Z 2506/2606 20008KT 9999 FEW020 PROB30
TEMPO 2506/2510 4000 TSRA SCT020 FEW033CB
TEMPO 2514/2524 4000 TSRA SCT020 SCT033CB

Example: see airport list